sensor_id;sensor_type;location;lat;lon;timestamp;pressure;altitude;pressure_sealevel;temperature;humidity
7888;BME280;3989;48.810;9.208;2022-10-16T00:00:49;98523.59;;;15.16;100.00
7888;BME280;3989;48.810;9.208;2022-10-16T00:03:17;98395.63;;;14.39;100.00
7888;BME280;3989;48.810;9.208;2022-10-16T00:05:51;98508.22;;;14.92;100.00
7888;BME280;3989;48.810;9.208;2022-10-16T00:08:28;98674.28;;;15.92;100.00
7888;BME280;3989;48.810;9.208;2022-10-16T00:11:07;98539.75;;;15.09;100.00
7888;BME280;3989;48.810;9.208;2022-10-16T00:13:37;98563.91;;;15.16;100.00
7888;BME280;3989;48.810;9.208;2022-10-16T00:16:15;98351.59;;;13.83;100.00
7888;BME280;3989;48.810;9.208;2022-10-16T00:18:58;98654.78;;;15.58;100.00
7888;BME280;3989;48.810;9.208;2022-10-16T00:21:31;98495.75;;;14.46;100.00
7888;BME280;3989;48.810;9.208;2022-10-16T00:24:06;98685.03;;;15.54;100.00
7888;BME280;3989;48.810;9.208;2022-10-16T00:26:52;98563.38;;;14.94;100.00
7888;BME280;3989;48.810;9.208;2022-10-16T00:29:25;98582.00;;;14.96;100.00
7888;BME280;3989;48.810;9.208;2022-10-16T00:34:54;98497.03;;;14.37;100.00
7888;BME280;3989;48.810;9.208;2022-10-16T00:37:27;98573.97;;;14.83;100.00
7888;BME280;3989;48.810;9.208;2022-10-16T00:40:22;98686.91;;;15.34;100.00
7888;BME280;3989;48.810;9.208;2022-10-16T00:42:50;98506.09;;;14.36;100.00
7888;BME280;3989;48.810;9.208;2022-10-16T00:45:26;98422.56;;;13.67;100.00
7888;BME280;3989;48.810;9.208;2022-10-16T00:48:08;98526.75;;;14.36;100.00
7888;BME280;3989;48.810;9.208;2022-10-16T00:50:37;98471.22;;;13.97;100.00
7888;BME280;3989;48.810;9.208;2022-10-16T00:53:21;98432.25;;;13.68;100.00
7888;BME280;3989;48.810;9.208;2022-10-16T00:55:55;98664.22;;;15.10;100.00
7888;BME280;3989;48.810;9.208;2022-10-16T00:58:27;98426.91;;;13.55;100.00
7888;BME280;3989;48.810;9.208;2022-10-16T01:01:00;98497.44;;;14.08;100.00
7888;BME280;3989;48.810;9.208;2022-10-16T01:03:32;98389.78;;;13.45;100.00
7888;BME280;3989;48.810;9.208;2022-10-16T01:06:19;98689.03;;;15.18;100.00
7888;BME280;3989;48.810;9.208;2022-10-16T01:09:18;98682.59;;;15.26;100.00
7888;BME280;3989;48.810;9.208;2022-10-16T01:12:13;98557.91;;;14.56;100.00
7888;BME280;3989;48.810;9.208;2022-10-16T01:14:55;98475.16;;;14.01;100.00
7888;BME280;3989;48.810;9.208;2022-10-16T01:17:35;98573.75;;;14.78;100.00
7888;BME280;3989;48.810;9.208;2022-10-16T01:20:16;98550.25;;;14.60;100.00
7888;BME280;3989;48.810;9.208;2022-10-16T01:23:00;98516.41;;;14.46;100.00
7888;BME280;3989;48.810;9.208;2022-10-16T01:25:51;98700.53;;;15.45;100.00
7888;BME280;3989;48.810;9.208;2022-10-16T01:28:36;98599.56;;;14.98;100.00
7888;BME280;3989;48.810;9.208;2022-10-16T01:31:05;98384.00;;;13.48;100.00
7888;BME280;3989;48.810;9.208;2022-10-16T01:33:38;98703.03;;;15.40;100.00
7888;BME280;3989;48.810;9.208;2022-10-16T01:36:21;98419.25;;;13.85;100.00
7888;BME280;3989;48.810;9.208;2022-10-16T01:38:54;98592.78;;;14.76;100.00
7888;BME280;3989;48.810;9.208;2022-10-16T01:41:30;98457.59;;;14.11;100.00
7888;BME280;3989;48.810;9.208;2022-10-16T01:44:07;98676.31;;;15.45;100.00
7888;BME280;3989;48.810;9.208;2022-10-16T01:46:46;98430.16;;;13.96;100.00
7888;BME280;3989;48.810;9.208;2022-10-16T01:49:16;98592.13;;;14.87;100.00
7888;BME280;3989;48.810;9.208;2022-10-16T01:51:48;98518.69;;;14.36;100.00
7888;BME280;3989;48.810;9.208;2022-10-16T01:54:27;98502.81;;;14.41;100.00
7888;BME280;3989;48.810;9.208;2022-10-16T01:57:01;98403.59;;;13.62;100.00
7888;BME280;3989;48.810;9.208;2022-10-16T01:59:43;98401.31;;;13.72;100.00
7888;BME280;3989;48.810;9.208;2022-10-16T02:02:15;98425.03;;;13.95;100.00
7888;BME280;3989;48.810;9.208;2022-10-16T02:04:46;98681.69;;;15.45;100.00
7888;BME280;3989;48.810;9.208;2022-10-16T02:07:18;98465.84;;;14.16;100.00
7888;BME280;3989;48.810;9.208;2022-10-16T02:09:47;98473.28;;;14.28;100.00
7888;BME280;3989;48.810;9.208;2022-10-16T02:12:19;98670.53;;;15.48;100.00
7888;BME280;3989;48.810;9.208;2022-10-16T02:15:03;98405.59;;;13.93;100.00
7888;BME280;3989;48.810;9.208;2022-10-16T02:17:32;98498.63;;;14.45;100.00
7888;BME280;3989;48.810;9.208;2022-10-16T02:20:04;98501.75;;;14.42;100.00
7888;BME280;3989;48.810;9.208;2022-10-16T02:22:37;98415.31;;;13.94;100.00
7888;BME280;3989;48.810;9.208;2022-10-16T02:25:17;98415.72;;;13.91;100.00
7888;BME280;3989;48.810;9.208;2022-10-16T02:27:54;98686.88;;;15.47;100.00
7888;BME280;3989;48.810;9.208;2022-10-16T02:30:30;98446.06;;;14.04;100.00
7888;BME280;3989;48.810;9.208;2022-10-16T02:33:04;98501.97;;;14.40;100.00
7888;BME280;3989;48.810;9.208;2022-10-16T02:35:37;98556.41;;;14.80;100.00
7888;BME280;3989;48.810;9.208;2022-10-16T02:38:09;98571.28;;;14.89;100.00
7888;BME280;3989;48.810;9.208;2022-10-16T02:40:40;98499.88;;;14.42;100.00
7888;BME280;3989;48.810;9.208;2022-10-16T02:43:13;98567.56;;;14.70;100.00
7888;BME280;3989;48.810;9.208;2022-10-16T02:45:50;98572.09;;;14.83;100.00
7888;BME280;3989;48.810;9.208;2022-10-16T02:48:22;98655.94;;;15.18;100.00
7888;BME280;3989;48.810;9.208;2022-10-16T02:50:52;98414.72;;;13.72;100.00
7888;BME280;3989;48.810;9.208;2022-10-16T02:53:22;98507.94;;;14.23;100.00
7888;BME280;3989;48.810;9.208;2022-10-16T02:55:59;98404.59;;;13.67;100.00
7888;BME280;3989;48.810;9.208;2022-10-16T02:58:34;98505.69;;;14.19;100.00
7888;BME280;3989;48.810;9.208;2022-10-16T03:01:05;98502.16;;;14.12;100.00
7888;BME280;3989;48.810;9.208;2022-10-16T03:03:32;98434.34;;;13.59;100.00
7888;BME280;3989;48.810;9.208;2022-10-16T03:06:01;98593.25;;;14.60;100.00
7888;BME280;3989;48.810;9.208;2022-10-16T03:08:32;98688.41;;;15.16;100.00
7888;BME280;3989;48.810;9.208;2022-10-16T03:11:04;98667.75;;;15.04;100.00
7888;BME280;3989;48.810;9.208;2022-10-16T03:13:38;98380.28;;;13.23;100.00
7888;BME280;3989;48.810;9.208;2022-10-16T03:16:09;98580.25;;;14.37;100.00
7888;BME280;3989;48.810;9.208;2022-10-16T03:18:41;98532.75;;;13.98;100.00
7888;BME280;3989;48.810;9.208;2022-10-16T03:21:15;98432.66;;;13.39;100.00
7888;BME280;3989;48.810;9.208;2022-10-16T03:23:45;98517.06;;;13.82;100.00
7888;BME280;3989;48.810;9.208;2022-10-16T03:26:22;98699.00;;;14.85;100.00
7888;BME280;3989;48.810;9.208;2022-10-16T03:29:07;98586.19;;;14.06;100.00
7888;BME280;3989;48.810;9.208;2022-10-16T03:31:39;98686.81;;;14.76;100.00
7888;BME280;3989;48.810;9.208;2022-10-16T03:34:11;98514.38;;;13.69;100.00
7888;BME280;3989;48.810;9.208;2022-10-16T03:36:43;98528.38;;;13.78;100.00
7888;BME280;3989;48.810;9.208;2022-10-16T03:39:13;98422.94;;;13.11;100.00
7888;BME280;3989;48.810;9.208;2022-10-16T03:41:47;98702.50;;;14.66;100.00
7888;BME280;3989;48.810;9.208;2022-10-16T03:44:21;98513.94;;;13.59;100.00
7888;BME280;3989;48.810;9.208;2022-10-16T03:46:49;98521.97;;;13.59;100.00
7888;BME280;3989;48.810;9.208;2022-10-16T03:49:17;98579.59;;;13.89;100.00
7888;BME280;3989;48.810;9.208;2022-10-16T03:51:47;98588.66;;;14.01;100.00
7888;BME280;3989;48.810;9.208;2022-10-16T03:54:14;98572.75;;;13.87;100.00
7888;BME280;3989;48.810;9.208;2022-10-16T03:56:44;98526.72;;;13.57;100.00
7888;BME280;3989;48.810;9.208;2022-10-16T03:59:14;98408.41;;;12.80;100.00
7888;BME280;3989;48.810;9.208;2022-10-16T04:01:41;98535.97;;;13.48;100.00
7888;BME280;3989;48.810;9.208;2022-10-16T04:04:22;98601.03;;;13.83;100.00
7888;BME280;3989;48.810;9.208;2022-10-16T04:06:56;98610.13;;;13.95;100.00
7888;BME280;3989;48.810;9.208;2022-10-16T04:09:27;98446.59;;;13.01;100.00
7888;BME280;3989;48.810;9.208;2022-10-16T04:12:07;98430.47;;;12.82;100.00
7888;BME280;3989;48.810;9.208;2022-10-16T04:14:34;98691.34;;;14.36;100.00
7888;BME280;3989;48.810;9.208;2022-10-16T04:17:01;98682.41;;;14.29;100.00
7888;BME280;3989;48.810;9.208;2022-10-16T04:19:31;98416.56;;;12.58;100.00
7888;BME280;3989;48.810;9.208;2022-10-16T04:22:06;98425.84;;;12.56;100.00
7888;BME280;3989;48.810;9.208;2022-10-16T04:24:35;98525.72;;;13.04;100.00
7888;BME280;3989;48.810;9.208;2022-10-16T04:27:08;98701.19;;;14.23;100.00
7888;BME280;3989;48.810;9.208;2022-10-16T04:29:37;98703.03;;;14.22;100.00
7888;BME280;3989;48.810;9.208;2022-10-16T04:32:49;98509.25;;;13.07;100.00
7888;BME280;3989;48.810;9.208;2022-10-16T04:35:32;98684.25;;;14.22;100.00
7888;BME280;3989;48.810;9.208;2022-10-16T04:38:01;98703.06;;;14.29;100.00
7888;BME280;3989;48.810;9.208;2022-10-16T04:40:29;98712.78;;;14.30;100.00
7888;BME280;3989;48.810;9.208;2022-10-16T04:42:58;98696.84;;;14.28;100.00
7888;BME280;3989;48.810;9.208;2022-10-16T04:45:24;98668.53;;;14.06;100.00
7888;BME280;3989;48.810;9.208;2022-10-16T04:47:51;98597.03;;;13.52;100.00
7888;BME280;3989;48.810;9.208;2022-10-16T04:50:25;98606.34;;;13.63;100.00
7888;BME280;3989;48.810;9.208;2022-10-16T04:52:56;98712.59;;;14.31;100.00
7888;BME280;3989;48.810;9.208;2022-10-16T04:55:27;98710.09;;;14.30;100.00
7888;BME280;3989;48.810;9.208;2022-10-16T04:58:01;98699.16;;;14.25;100.00
7888;BME280;3989;48.810;9.208;2022-10-16T05:00:30;98536.72;;;13.22;100.00
7888;BME280;3989;48.810;9.208;2022-10-16T05:02:57;98548.28;;;13.23;100.00
7888;BME280;3989;48.810;9.208;2022-10-16T05:05:29;98649.72;;;13.93;100.00
7888;BME280;3989;48.810;9.208;2022-10-16T05:07:56;98631.97;;;13.79;100.00
7888;BME280;3989;48.810;9.208;2022-10-16T05:10:22;98629.47;;;13.77;100.00
7888;BME280;3989;48.810;9.208;2022-10-16T05:12:49;98624.94;;;13.71;100.00
7888;BME280;3989;48.810;9.208;2022-10-16T05:15:22;98616.03;;;13.64;100.00
7888;BME280;3989;48.810;9.208;2022-10-16T05:18:08;98753.03;;;14.30;100.00
7888;BME280;3989;48.810;9.208;2022-10-16T05:20:39;98634.41;;;13.67;100.00
7888;BME280;3989;48.810;9.208;2022-10-16T05:23:10;98729.09;;;14.22;100.00
7888;BME280;3989;48.810;9.208;2022-10-16T05:25:39;98641.81;;;13.58;100.00
7888;BME280;3989;48.810;9.208;2022-10-16T05:28:17;98712.72;;;14.10;100.00
7888;BME280;3989;48.810;9.208;2022-10-16T05:30:43;98518.84;;;12.88;100.00
7888;BME280;3989;48.810;9.208;2022-10-16T05:33:28;98714.97;;;14.00;100.00
7888;BME280;3989;48.810;9.208;2022-10-16T05:35:56;98464.53;;;12.53;100.00
7888;BME280;3989;48.810;9.208;2022-10-16T05:38:40;98631.06;;;13.58;100.00
7888;BME280;3989;48.810;9.208;2022-10-16T05:41:07;98446.75;;;12.39;100.00
7888;BME280;3989;48.810;9.208;2022-10-16T05:43:40;98621.28;;;13.38;100.00
7888;BME280;3989;48.810;9.208;2022-10-16T05:46:09;98561.13;;;12.99;100.00
7888;BME280;3989;48.810;9.208;2022-10-16T05:48:38;98571.03;;;13.05;100.00
7888;BME280;3989;48.810;9.208;2022-10-16T05:51:20;98739.81;;;14.15;100.00
7888;BME280;3989;48.810;9.208;2022-10-16T05:53:59;98464.88;;;12.37;100.00
7888;BME280;3989;48.810;9.208;2022-10-16T05:56:26;98736.50;;;14.19;100.00
7888;BME280;3989;48.810;9.208;2022-10-16T05:58:53;98762.75;;;14.24;100.00
7888;BME280;3989;48.810;9.208;2022-10-16T06:01:27;98569.28;;;13.19;100.00
7888;BME280;3989;48.810;9.208;2022-10-16T06:04:02;98563.53;;;13.22;100.00
7888;BME280;3989;48.810;9.208;2022-10-16T06:06:40;98655.44;;;13.70;100.00
7888;BME280;3989;48.810;9.208;2022-10-16T06:09:08;98778.25;;;14.35;100.00
7888;BME280;3989;48.810;9.208;2022-10-16T06:11:37;98652.75;;;13.70;100.00
7888;BME280;3989;48.810;9.208;2022-10-16T06:14:08;98786.28;;;14.29;100.00
7888;BME280;3989;48.810;9.208;2022-10-16T06:16:38;98767.34;;;14.37;100.00
7888;BME280;3989;48.810;9.208;2022-10-16T06:19:05;98514.34;;;12.89;100.00
7888;BME280;3989;48.810;9.208;2022-10-16T06:21:50;98576.13;;;13.28;100.00
7888;BME280;3989;48.810;9.208;2022-10-16T06:24:27;98708.97;;;13.98;100.00
7888;BME280;3989;48.810;9.208;2022-10-16T06:26:54;98455.91;;;12.58;100.00
7888;BME280;3989;48.810;9.208;2022-10-16T06:29:21;98778.31;;;14.48;100.00
7888;BME280;3989;48.810;9.208;2022-10-16T06:31:48;98802.06;;;14.58;100.00
7888;BME280;3989;48.810;9.208;2022-10-16T06:34:27;98799.63;;;14.63;100.00
7888;BME280;3989;48.810;9.208;2022-10-16T06:36:56;98679.88;;;13.95;100.00
7888;BME280;3989;48.810;9.208;2022-10-16T06:39:23;98670.00;;;14.08;100.00
7888;BME280;3989;48.810;9.208;2022-10-16T06:41:54;98549.56;;;13.40;100.00
7888;BME280;3989;48.810;9.208;2022-10-16T06:44:27;98734.50;;;14.61;100.00
7888;BME280;3989;48.810;9.208;2022-10-16T06:47:07;98741.16;;;14.71;100.00
7888;BME280;3989;48.810;9.208;2022-10-16T06:49:34;98623.75;;;14.06;100.00
7888;BME280;3989;48.810;9.208;2022-10-16T06:52:05;98657.69;;;14.34;100.00
7888;BME280;3989;48.810;9.208;2022-10-16T06:54:37;98705.81;;;14.68;100.00
7888;BME280;3989;48.810;9.208;2022-10-16T06:57:04;98556.44;;;13.68;100.00
7888;BME280;3989;48.810;9.208;2022-10-16T06:59:31;98746.53;;;14.85;100.00
7888;BME280;3989;48.810;9.208;2022-10-16T07:01:57;98545.72;;;13.68;100.00
7888;BME280;3989;48.810;9.208;2022-10-16T07:04:26;98791.75;;;15.47;100.00
7888;BME280;3989;48.810;9.208;2022-10-16T07:06:55;98785.75;;;15.51;100.00
7888;BME280;3989;48.810;9.208;2022-10-16T07:09:23;98825.84;;;15.86;100.00
7888;BME280;3989;48.810;9.208;2022-10-16T07:11:56;98753.69;;;15.56;100.00
7888;BME280;3989;48.810;9.208;2022-10-16T07:14:25;98641.91;;;14.96;100.00
7888;BME280;3989;48.810;9.208;2022-10-16T07:16:58;98577.31;;;14.58;100.00
7888;BME280;3989;48.810;9.208;2022-10-16T07:19:25;98834.00;;;16.23;100.00
7888;BME280;3989;48.810;9.208;2022-10-16T07:21:52;98851.78;;;16.31;100.00
7888;BME280;3989;48.810;9.208;2022-10-16T07:24:18;98678.66;;;15.22;100.00
7888;BME280;3989;48.810;9.208;2022-10-16T07:26:46;98851.22;;;16.16;100.00
7888;BME280;3989;48.810;9.208;2022-10-16T07:29:15;98747.28;;;15.44;100.00
7888;BME280;3989;48.810;9.208;2022-10-16T07:31:42;98730.56;;;15.29;100.00
7888;BME280;3989;48.810;9.208;2022-10-16T07:34:13;98698.97;;;14.98;100.00
7888;BME280;3989;48.810;9.208;2022-10-16T07:36:51;98788.44;;;15.45;100.00
7888;BME280;3989;48.810;9.208;2022-10-16T07:39:17;98824.06;;;15.60;100.00
7888;BME280;3989;48.810;9.208;2022-10-16T07:41:44;98699.81;;;14.92;100.00
7888;BME280;3989;48.810;9.208;2022-10-16T07:44:12;98861.63;;;15.99;100.00
7888;BME280;3989;48.810;9.208;2022-10-16T07:46:47;98857.47;;;16.03;100.00
7888;BME280;3989;48.810;9.208;2022-10-16T07:49:15;98615.34;;;14.55;100.00
7888;BME280;3989;48.810;9.208;2022-10-16T07:51:44;98708.88;;;15.24;100.00
7888;BME280;3989;48.810;9.208;2022-10-16T07:54:14;98882.00;;;16.40;100.00
7888;BME280;3989;48.810;9.208;2022-10-16T07:56:54;98882.78;;;16.47;100.00
7888;BME280;3989;48.810;9.208;2022-10-16T07:59:22;98745.75;;;15.81;100.00
7888;BME280;3989;48.810;9.208;2022-10-16T08:01:48;98838.00;;;16.52;100.00
7888;BME280;3989;48.810;9.208;2022-10-16T08:04:15;98882.59;;;16.93;100.00
7888;BME280;3989;48.810;9.208;2022-10-16T08:06:42;98848.97;;;16.95;100.00
7888;BME280;3989;48.810;9.208;2022-10-16T08:09:09;98803.19;;;16.89;100.00
7888;BME280;3989;48.810;9.208;2022-10-16T08:11:35;98786.78;;;16.90;100.00
7888;BME280;3989;48.810;9.208;2022-10-16T08:14:04;98889.72;;;17.68;100.00
7888;BME280;3989;48.810;9.208;2022-10-16T08:16:47;98884.69;;;17.71;100.00
7888;BME280;3989;48.810;9.208;2022-10-16T08:19:21;98838.72;;;17.60;100.00
7888;BME280;3989;48.810;9.208;2022-10-16T08:25:24;98623.28;;;16.35;100.00
7888;BME280;3989;48.810;9.208;2022-10-16T08:27:53;98906.16;;;18.09;100.00
7888;BME280;3989;48.810;9.208;2022-10-16T08:30:21;98856.47;;;17.92;100.00
7888;BME280;3989;48.810;9.208;2022-10-16T08:32:50;98823.38;;;17.97;100.00
7888;BME280;3989;48.810;9.208;2022-10-16T08:35:17;98915.34;;;18.74;100.00
7888;BME280;3989;48.810;9.208;2022-10-16T08:37:43;98859.31;;;18.52;100.00
7888;BME280;3989;48.810;9.208;2022-10-16T08:40:17;98899.94;;;18.93;100.00
7888;BME280;3989;48.810;9.208;2022-10-16T08:43:02;98885.72;;;18.98;100.00
7888;BME280;3989;48.810;9.208;2022-10-16T08:45:42;98856.69;;;18.93;100.00
7888;BME280;3989;48.810;9.208;2022-10-16T08:48:17;98917.53;;;19.44;100.00
7888;BME280;3989;48.810;9.208;2022-10-16T08:50:47;98919.31;;;19.50;100.00
7888;BME280;3989;48.810;9.208;2022-10-16T08:53:16;98751.34;;;18.57;100.00
7888;BME280;3989;48.810;9.208;2022-10-16T08:55:46;98917.00;;;19.76;100.00
7888;BME280;3989;48.810;9.208;2022-10-16T08:58:17;98789.19;;;19.10;100.00
7888;BME280;3989;48.810;9.208;2022-10-16T09:00:46;98823.94;;;19.24;100.00
7888;BME280;3989;48.810;9.208;2022-10-16T09:03:21;98922.63;;;19.75;100.00
7888;BME280;3989;48.810;9.208;2022-10-16T09:06:01;98918.28;;;19.85;100.00
7888;BME280;3989;48.810;9.208;2022-10-16T09:08:38;98897.66;;;19.84;100.00
7888;BME280;3989;48.810;9.208;2022-10-16T09:11:14;98920.28;;;20.02;100.00
7888;BME280;3989;48.810;9.208;2022-10-16T09:13:50;98849.28;;;19.53;100.00
7888;BME280;3989;48.810;9.208;2022-10-16T09:16:23;98885.44;;;19.70;100.00
7888;BME280;3989;48.810;9.208;2022-10-16T09:18:58;98911.09;;;19.91;100.00
7888;BME280;3989;48.810;9.208;2022-10-16T09:21:28;98913.81;;;19.91;100.00
7888;BME280;3989;48.810;9.208;2022-10-16T09:24:00;98923.81;;;19.90;100.00
7888;BME280;3989;48.810;9.208;2022-10-16T09:26:31;98911.53;;;19.65;100.00
7888;BME280;3989;48.810;9.208;2022-10-16T09:28:57;98895.59;;;19.33;100.00
7888;BME280;3989;48.810;9.208;2022-10-16T09:31:24;98906.22;;;19.47;100.00
7888;BME280;3989;48.810;9.208;2022-10-16T09:33:57;98923.53;;;19.46;100.00
7888;BME280;3989;48.810;9.208;2022-10-16T09:36:26;98948.97;;;19.45;100.00
7888;BME280;3989;48.810;9.208;2022-10-16T09:39:03;98958.13;;;19.44;100.00
7888;BME280;3989;48.810;9.208;2022-10-16T09:41:30;98919.41;;;19.13;100.00
7888;BME280;3989;48.810;9.208;2022-10-16T09:43:59;98955.94;;;19.34;100.00
7888;BME280;3989;48.810;9.208;2022-10-16T09:46:29;98813.66;;;18.44;100.00
7888;BME280;3989;48.810;9.208;2022-10-16T09:49:03;98858.09;;;18.66;100.00
7888;BME280;3989;48.810;9.208;2022-10-16T09:51:32;98947.66;;;19.17;100.00
7888;BME280;3989;48.810;9.208;2022-10-16T09:54:00;98945.44;;;19.26;100.00
7888;BME280;3989;48.810;9.208;2022-10-16T09:56:29;98970.97;;;19.48;100.00
7888;BME280;3989;48.810;9.208;2022-10-16T09:58:59;98945.38;;;19.85;100.00
7888;BME280;3989;48.810;9.208;2022-10-16T10:01:29;98914.88;;;19.90;100.00
7888;BME280;3989;48.810;9.208;2022-10-16T10:04:03;98699.34;;;18.73;100.00
7888;BME280;3989;48.810;9.208;2022-10-16T10:06:44;98878.94;;;19.95;100.00
7888;BME280;3989;48.810;9.208;2022-10-16T10:09:18;98961.25;;;20.63;100.00
7888;BME280;3989;48.810;9.208;2022-10-16T10:11:57;98978.19;;;20.82;100.00
7888;BME280;3989;48.810;9.208;2022-10-16T10:14:35;98967.56;;;20.92;100.00
7888;BME280;3989;48.810;9.208;2022-10-16T10:17:20;98958.97;;;20.83;100.00
7888;BME280;3989;48.810;9.208;2022-10-16T10:19:55;98827.91;;;20.15;100.00
7888;BME280;3989;48.810;9.208;2022-10-16T10:22:31;98879.84;;;20.47;100.00
7888;BME280;3989;48.810;9.208;2022-10-16T10:27:58;98826.25;;;20.37;100.00
7888;BME280;3989;48.810;9.208;2022-10-16T10:30:41;98962.06;;;21.43;100.00
7888;BME280;3989;48.810;9.208;2022-10-16T10:33:20;98949.41;;;21.66;100.00
7888;BME280;3989;48.810;9.208;2022-10-16T10:35:56;98711.78;;;20.63;100.00
7888;BME280;3989;48.810;9.208;2022-10-16T10:38:31;98876.53;;;22.13;100.00
7888;BME280;3989;48.810;9.208;2022-10-16T10:41:12;98801.00;;;21.93;100.00
7888;BME280;3989;48.810;9.208;2022-10-16T10:43:54;98935.94;;;23.08;100.00
7888;BME280;3989;48.810;9.208;2022-10-16T10:46:29;98945.38;;;23.22;100.00
7888;BME280;3989;48.810;9.208;2022-10-16T10:49:10;98969.78;;;23.38;100.00
7888;BME280;3989;48.810;9.208;2022-10-16T10:51:45;98989.22;;;23.47;100.00
7888;BME280;3989;48.810;9.208;2022-10-16T10:54:22;98835.16;;;22.71;100.00
7888;BME280;3989;48.810;9.208;2022-10-16T10:56:57;98967.97;;;23.44;100.00
7888;BME280;3989;48.810;9.208;2022-10-16T10:59:45;98959.19;;;23.15;100.00
7888;BME280;3989;48.810;9.208;2022-10-16T11:02:22;98979.25;;;23.09;100.00
7888;BME280;3989;48.810;9.208;2022-10-16T11:07:51;98938.22;;;22.67;100.00
7888;BME280;3989;48.810;9.208;2022-10-16T11:10:31;98852.50;;;22.05;100.00
7888;BME280;3989;48.810;9.208;2022-10-16T11:13:10;98912.59;;;22.46;100.00
7888;BME280;3989;48.810;9.208;2022-10-16T11:15:43;98824.06;;;21.90;100.00
7888;BME280;3989;48.810;9.208;2022-10-16T11:18:16;98886.97;;;22.21;100.00
7888;BME280;3989;48.810;9.208;2022-10-16T11:20:49;98960.09;;;22.77;100.00
7888;BME280;3989;48.810;9.208;2022-10-16T11:23:23;98922.44;;;22.69;100.00
7888;BME280;3989;48.810;9.208;2022-10-16T11:25:52;98932.25;;;22.92;100.00
7888;BME280;3989;48.810;9.208;2022-10-16T11:28:24;98950.50;;;23.18;100.00
7888;BME280;3989;48.810;9.208;2022-10-16T11:31:00;98929.19;;;23.10;100.00
7888;BME280;3989;48.810;9.208;2022-10-16T11:33:32;98925.97;;;22.91;100.00
7888;BME280;3989;48.810;9.208;2022-10-16T11:36:06;98960.72;;;23.06;100.00
7888;BME280;3989;48.810;9.208;2022-10-16T11:38:41;98917.16;;;22.63;100.00
7888;BME280;3989;48.810;9.208;2022-10-16T11:41:17;98957.56;;;22.92;100.00
7888;BME280;3989;48.810;9.208;2022-10-16T11:43:49;98952.00;;;22.82;100.00
7888;BME280;3989;48.810;9.208;2022-10-16T11:46:21;98919.84;;;22.79;100.00
7888;BME280;3989;48.810;9.208;2022-10-16T11:48:56;98952.91;;;23.15;100.00
7888;BME280;3989;48.810;9.208;2022-10-16T11:51:33;98942.44;;;23.28;100.00
7888;BME280;3989;48.810;9.208;2022-10-16T11:54:10;98962.44;;;23.39;98.72
7888;BME280;3989;48.810;9.208;2022-10-16T11:56:44;98943.00;;;23.52;97.11
7888;BME280;3989;48.810;9.208;2022-10-16T11:59:18;98952.38;;;23.66;94.81
7888;BME280;3989;48.810;9.208;2022-10-16T12:01:49;98942.84;;;23.69;92.00
7888;BME280;3989;48.810;9.208;2022-10-16T12:04:22;98949.00;;;23.86;87.28
7888;BME280;3989;48.810;9.208;2022-10-16T12:06:58;98737.47;;;22.69;82.80
7888;BME280;3989;48.810;9.208;2022-10-16T12:09:29;98947.56;;;24.10;82.74
7888;BME280;3989;48.810;9.208;2022-10-16T12:11:56;98909.63;;;24.09;83.45
7888;BME280;3989;48.810;9.208;2022-10-16T12:14:36;98938.75;;;24.40;82.74
7888;BME280;3989;48.810;9.208;2022-10-16T12:17:04;98921.06;;;24.47;79.85
7888;BME280;3989;48.810;9.208;2022-10-16T12:19:57;98920.00;;;24.53;74.61
7888;BME280;3989;48.810;9.208;2022-10-16T12:22:28;98932.22;;;24.46;77.00
7888;BME280;3989;48.810;9.208;2022-10-16T12:24:56;98828.09;;;23.60;76.49
7888;BME280;3989;48.810;9.208;2022-10-16T12:29:55;98942.53;;;24.34;76.73
7888;BME280;3989;48.810;9.208;2022-10-16T12:32:28;98812.34;;;23.72;76.10
7888;BME280;3989;48.810;9.208;2022-10-16T12:34:55;98810.81;;;23.86;70.11
7888;BME280;3989;48.810;9.208;2022-10-16T12:37:24;98947.94;;;24.76;69.35
7888;BME280;3989;48.810;9.208;2022-10-16T12:39:53;98937.50;;;24.58;70.51
7888;BME280;3989;48.810;9.208;2022-10-16T12:42:32;98877.19;;;24.07;71.25
7888;BME280;3989;48.810;9.208;2022-10-16T12:45:00;98822.38;;;23.62;74.15
7888;BME280;3989;48.810;9.208;2022-10-16T12:47:46;98855.75;;;23.42;75.23
7888;BME280;3989;48.810;9.208;2022-10-16T12:50:34;98933.38;;;23.76;77.94
7888;BME280;3989;48.810;9.208;2022-10-16T12:53:03;98773.91;;;22.46;84.92
7888;BME280;3989;48.810;9.208;2022-10-16T12:55:35;98945.28;;;23.38;87.56
7888;BME280;3989;48.810;9.208;2022-10-16T12:58:21;98803.91;;;22.52;82.48
7888;BME280;3989;48.810;9.208;2022-10-16T13:00:54;98947.09;;;23.55;82.32
7888;BME280;3989;48.810;9.208;2022-10-16T13:03:42;98828.22;;;22.85;82.73
7888;BME280;3989;48.810;9.208;2022-10-16T13:06:19;98727.63;;;22.15;82.90
7888;BME280;3989;48.810;9.208;2022-10-16T13:09:12;98954.75;;;23.58;82.21
7888;BME280;3989;48.810;9.208;2022-10-16T13:11:57;98939.75;;;23.55;82.90
7888;BME280;3989;48.810;9.208;2022-10-16T13:17:41;98972.53;;;24.29;75.12
7888;BME280;3989;48.810;9.208;2022-10-16T13:20:16;98847.53;;;23.74;73.79
7888;BME280;3989;48.810;9.208;2022-10-16T13:22:54;98833.94;;;23.79;70.75
7888;BME280;3989;48.810;9.208;2022-10-16T13:25:33;98855.94;;;24.09;68.79
7888;BME280;3989;48.810;9.208;2022-10-16T13:28:03;98920.28;;;24.57;65.77
7888;BME280;3989;48.810;9.208;2022-10-16T13:30:32;98877.06;;;24.34;68.15
7888;BME280;3989;48.810;9.208;2022-10-16T13:33:04;98853.75;;;24.11;67.78
7888;BME280;3989;48.810;9.208;2022-10-16T13:35:35;98761.81;;;23.49;70.48
7888;BME280;3989;48.810;9.208;2022-10-16T13:38:08;98918.03;;;24.44;70.24
7888;BME280;3989;48.810;9.208;2022-10-16T13:40:54;98873.19;;;24.20;69.29
7888;BME280;3989;48.810;9.208;2022-10-16T13:43:26;98756.94;;;23.51;68.92
7888;BME280;3989;48.810;9.208;2022-10-16T13:45:56;98949.38;;;24.83;68.31
7888;BME280;3989;48.810;9.208;2022-10-16T13:48:24;98957.25;;;24.80;64.93
7888;BME280;3989;48.810;9.208;2022-10-16T13:51:01;98961.63;;;24.81;63.91
7888;BME280;3989;48.810;9.208;2022-10-16T13:53:31;98966.50;;;24.74;63.54
7888;BME280;3989;48.810;9.208;2022-10-16T13:56:03;98868.81;;;24.19;65.51
7888;BME280;3989;48.810;9.208;2022-10-16T13:58:30;98955.00;;;24.67;66.58
7888;BME280;3989;48.810;9.208;2022-10-16T14:00:59;98969.94;;;24.49;68.99
7888;BME280;3989;48.810;9.208;2022-10-16T14:03:34;98887.66;;;23.83;71.34